sensor_id;sensor_type;location;lat;lon;timestamp;P1;durP1;ratioP1;P2;durP2;ratioP2
72676;SDS011;60755;51.374;10.662;2022-09-09T00:01:47;4.27;;;1.93;;
72676;SDS011;60755;51.374;10.662;2022-09-09T00:04:23;2.40;;;1.97;;
72676;SDS011;60755;51.374;10.662;2022-09-09T00:06:59;3.07;;;1.80;;
72676;SDS011;60755;51.374;10.662;2022-09-09T00:09:29;2.60;;;2.00;;
72676;SDS011;60755;51.374;10.662;2022-09-09T00:12:04;3.57;;;1.80;;
72676;SDS011;60755;51.374;10.662;2022-09-09T00:14:37;4.30;;;2.00;;
72676;SDS011;60755;51.374;10.662;2022-09-09T00:17:14;2.93;;;2.30;;
72676;SDS011;60755;51.374;10.662;2022-09-09T00:19:48;2.23;;;1.90;;
72676;SDS011;60755;51.374;10.662;2022-09-09T00:22:22;2.10;;;2.00;;
72676;SDS011;60755;51.374;10.662;2022-09-09T00:24:51;4.40;;;2.30;;
72676;SDS011;60755;51.374;10.662;2022-09-09T00:27:22;4.00;;;2.00;;
72676;SDS011;60755;51.374;10.662;2022-09-09T00:29:54;3.60;;;2.10;;
72676;SDS011;60755;51.374;10.662;2022-09-09T00:32:27;2.40;;;1.80;;
72676;SDS011;60755;51.374;10.662;2022-09-09T00:34:56;2.93;;;1.80;;
72676;SDS011;60755;51.374;10.662;2022-09-09T00:37:26;3.13;;;1.93;;
72676;SDS011;60755;51.374;10.662;2022-09-09T00:39:57;2.90;;;1.90;;
72676;SDS011;60755;51.374;10.662;2022-09-09T00:42:31;2.80;;;2.10;;
72676;SDS011;60755;51.374;10.662;2022-09-09T00:45:10;3.43;;;2.50;;
72676;SDS011;60755;51.374;10.662;2022-09-09T00:47:47;3.25;;;2.60;;
72676;SDS011;60755;51.374;10.662;2022-09-09T00:50:24;2.97;;;2.10;;
72676;SDS011;60755;51.374;10.662;2022-09-09T00:53:05;2.50;;;2.10;;
72676;SDS011;60755;51.374;10.662;2022-09-09T00:55:45;3.70;;;2.10;;
72676;SDS011;60755;51.374;10.662;2022-09-09T00:58:16;3.67;;;2.30;;
72676;SDS011;60755;51.374;10.662;2022-09-09T01:00:44;3.20;;;2.23;;
72676;SDS011;60755;51.374;10.662;2022-09-09T01:03:20;3.47;;;2.50;;
72676;SDS011;60755;51.374;10.662;2022-09-09T01:05:55;2.80;;;1.97;;
72676;SDS011;60755;51.374;10.662;2022-09-09T01:08:33;4.87;;;2.20;;
72676;SDS011;60755;51.374;10.662;2022-09-09T01:11:07;5.90;;;2.10;;
72676;SDS011;60755;51.374;10.662;2022-09-09T01:13:42;4.43;;;2.27;;
72676;SDS011;60755;51.374;10.662;2022-09-09T01:16:11;3.60;;;2.10;;
72676;SDS011;60755;51.374;10.662;2022-09-09T01:18:42;6.13;;;2.33;;
72676;SDS011;60755;51.374;10.662;2022-09-09T01:21:14;4.27;;;2.00;;
72676;SDS011;60755;51.374;10.662;2022-09-09T01:23:58;4.30;;;2.10;;
72676;SDS011;60755;51.374;10.662;2022-09-09T01:26:37;3.23;;;2.07;;
72676;SDS011;60755;51.374;10.662;2022-09-09T01:29:06;2.73;;;2.53;;
72676;SDS011;60755;51.374;10.662;2022-09-09T01:31:36;4.37;;;2.50;;
72676;SDS011;60755;51.374;10.662;2022-09-09T01:34:08;4.20;;;2.20;;
72676;SDS011;60755;51.374;10.662;2022-09-09T01:36:38;3.43;;;2.40;;
72676;SDS011;60755;51.374;10.662;2022-09-09T01:39:09;3.47;;;2.10;;
72676;SDS011;60755;51.374;10.662;2022-09-09T01:41:39;5.97;;;2.30;;
72676;SDS011;60755;51.374;10.662;2022-09-09T01:44:05;5.70;;;2.63;;
72676;SDS011;60755;51.374;10.662;2022-09-09T01:46:33;2.67;;;2.10;;
72676;SDS011;60755;51.374;10.662;2022-09-09T01:49:00;5.63;;;2.00;;
72676;SDS011;60755;51.374;10.662;2022-09-09T01:51:29;5.20;;;2.40;;
72676;SDS011;60755;51.374;10.662;2022-09-09T01:53:57;3.47;;;2.23;;
72676;SDS011;60755;51.374;10.662;2022-09-09T01:56:30;2.77;;;2.20;;
72676;SDS011;60755;51.374;10.662;2022-09-09T01:59:07;2.20;;;2.10;;
72676;SDS011;60755;51.374;10.662;2022-09-09T02:01:53;2.77;;;2.23;;
72676;SDS011;60755;51.374;10.662;2022-09-09T02:04:34;2.63;;;2.43;;
72676;SDS011;60755;51.374;10.662;2022-09-09T02:07:06;5.40;;;2.20;;
72676;SDS011;60755;51.374;10.662;2022-09-09T02:09:49;4.87;;;2.50;;
72676;SDS011;60755;51.374;10.662;2022-09-09T02:12:21;3.23;;;2.13;;
72676;SDS011;60755;51.374;10.662;2022-09-09T02:14:52;3.27;;;2.20;;
72676;SDS011;60755;51.374;10.662;2022-09-09T02:17:25;4.17;;;2.40;;
72676;SDS011;60755;51.374;10.662;2022-09-09T02:19:56;2.43;;;2.23;;
72676;SDS011;60755;51.374;10.662;2022-09-09T02:22:28;4.30;;;2.53;;
72676;SDS011;60755;51.374;10.662;2022-09-09T02:24:59;3.10;;;2.30;;
72676;SDS011;60755;51.374;10.662;2022-09-09T02:27:27;3.77;;;2.63;;
72676;SDS011;60755;51.374;10.662;2022-09-09T02:29:55;2.97;;;2.03;;
72676;SDS011;60755;51.374;10.662;2022-09-09T02:32:24;4.43;;;2.43;;
72676;SDS011;60755;51.374;10.662;2022-09-09T02:34:52;3.70;;;2.27;;
72676;SDS011;60755;51.374;10.662;2022-09-09T02:37:23;4.20;;;2.40;;
72676;SDS011;60755;51.374;10.662;2022-09-09T02:39:54;2.53;;;2.30;;
72676;SDS011;60755;51.374;10.662;2022-09-09T02:42:20;2.27;;;1.90;;
72676;SDS011;60755;51.374;10.662;2022-09-09T02:44:47;2.03;;;1.83;;
72676;SDS011;60755;51.374;10.662;2022-09-09T02:47:23;2.73;;;2.20;;
72676;SDS011;60755;51.374;10.662;2022-09-09T02:49:56;3.53;;;1.92;;
72676;SDS011;60755;51.374;10.662;2022-09-09T02:52:32;4.37;;;2.17;;
72676;SDS011;60755;51.374;10.662;2022-09-09T02:55:04;4.23;;;2.10;;
72676;SDS011;60755;51.374;10.662;2022-09-09T02:57:38;1.80;;;1.70;;
72676;SDS011;60755;51.374;10.662;2022-09-09T03:00:07;3.28;;;1.95;;
72676;SDS011;60755;51.374;10.662;2022-09-09T03:02:36;3.40;;;1.95;;
72676;SDS011;60755;51.374;10.662;2022-09-09T03:05:03;3.10;;;2.00;;
72676;SDS011;60755;51.374;10.662;2022-09-09T03:07:31;3.85;;;2.22;;
72676;SDS011;60755;51.374;10.662;2022-09-09T03:09:57;3.88;;;2.10;;
72676;SDS011;60755;51.374;10.662;2022-09-09T03:12:24;6.53;;;2.20;;
72676;SDS011;60755;51.374;10.662;2022-09-09T03:14:51;5.10;;;2.25;;
72676;SDS011;60755;51.374;10.662;2022-09-09T03:17:17;2.67;;;2.35;;
72676;SDS011;60755;51.374;10.662;2022-09-09T03:19:45;3.78;;;2.25;;
72676;SDS011;60755;51.374;10.662;2022-09-09T03:22:14;4.25;;;2.25;;
72676;SDS011;60755;51.374;10.662;2022-09-09T03:24:41;5.00;;;2.27;;
72676;SDS011;60755;51.374;10.662;2022-09-09T03:27:07;2.80;;;2.50;;
72676;SDS011;60755;51.374;10.662;2022-09-09T03:29:34;2.83;;;2.63;;
72676;SDS011;60755;51.374;10.662;2022-09-09T03:32:00;5.90;;;2.57;;
72676;SDS011;60755;51.374;10.662;2022-09-09T03:34:27;2.67;;;2.50;;
72676;SDS011;60755;51.374;10.662;2022-09-09T03:36:56;2.70;;;2.50;;
72676;SDS011;60755;51.374;10.662;2022-09-09T03:39:22;2.63;;;2.43;;
72676;SDS011;60755;51.374;10.662;2022-09-09T03:41:49;4.27;;;2.43;;
72676;SDS011;60755;51.374;10.662;2022-09-09T03:44:15;2.77;;;2.50;;
72676;SDS011;60755;51.374;10.662;2022-09-09T03:46:42;4.93;;;2.63;;
72676;SDS011;60755;51.374;10.662;2022-09-09T03:49:08;3.53;;;2.47;;
72676;SDS011;60755;51.374;10.662;2022-09-09T03:51:35;5.07;;;2.70;;
72676;SDS011;60755;51.374;10.662;2022-09-09T03:54:03;3.33;;;2.43;;
72676;SDS011;60755;51.374;10.662;2022-09-09T03:56:30;3.47;;;2.80;;
72676;SDS011;60755;51.374;10.662;2022-09-09T03:58:56;2.80;;;2.60;;
72676;SDS011;60755;51.374;10.662;2022-09-09T04:01:23;6.37;;;2.70;;
72676;SDS011;60755;51.374;10.662;2022-09-09T04:03:49;3.43;;;2.67;;
72676;SDS011;60755;51.374;10.662;2022-09-09T04:06:17;4.40;;;2.60;;
72676;SDS011;60755;51.374;10.662;2022-09-09T04:08:44;7.20;;;2.87;;
72676;SDS011;60755;51.374;10.662;2022-09-09T04:11:15;5.33;;;2.57;;
72676;SDS011;60755;51.374;10.662;2022-09-09T04:13:42;4.13;;;2.60;;
72676;SDS011;60755;51.374;10.662;2022-09-09T04:16:09;5.13;;;2.60;;
72676;SDS011;60755;51.374;10.662;2022-09-09T04:18:38;3.17;;;2.33;;
72676;SDS011;60755;51.374;10.662;2022-09-09T04:21:04;4.47;;;2.67;;
72676;SDS011;60755;51.374;10.662;2022-09-09T04:23:32;3.63;;;2.70;;
72676;SDS011;60755;51.374;10.662;2022-09-09T04:26:00;3.17;;;2.67;;
72676;SDS011;60755;51.374;10.662;2022-09-09T04:28:30;5.30;;;2.50;;
72676;SDS011;60755;51.374;10.662;2022-09-09T04:31:03;2.87;;;2.57;;
72676;SDS011;60755;51.374;10.662;2022-09-09T04:33:30;4.07;;;2.27;;
72676;SDS011;60755;51.374;10.662;2022-09-09T04:35:57;2.43;;;2.33;;
72676;SDS011;60755;51.374;10.662;2022-09-09T04:38:23;2.63;;;2.43;;
72676;SDS011;60755;51.374;10.662;2022-09-09T04:40:51;7.85;;;4.03;;
72676;SDS011;60755;51.374;10.662;2022-09-09T04:43:19;3.67;;;3.17;;
72676;SDS011;60755;51.374;10.662;2022-09-09T04:45:48;4.13;;;3.10;;
72676;SDS011;60755;51.374;10.662;2022-09-09T04:48:16;8.43;;;4.17;;
72676;SDS011;60755;51.374;10.662;2022-09-09T04:50:43;4.53;;;2.87;;
72676;SDS011;60755;51.374;10.662;2022-09-09T04:53:09;6.60;;;2.67;;
72676;SDS011;60755;51.374;10.662;2022-09-09T04:55:36;3.87;;;2.67;;
72676;SDS011;60755;51.374;10.662;2022-09-09T04:58:03;3.07;;;2.47;;
72676;SDS011;60755;51.374;10.662;2022-09-09T05:00:30;3.50;;;2.80;;
72676;SDS011;60755;51.374;10.662;2022-09-09T05:02:58;3.10;;;2.80;;
72676;SDS011;60755;51.374;10.662;2022-09-09T05:05:28;4.67;;;3.73;;
72676;SDS011;60755;51.374;10.662;2022-09-09T05:07:59;5.73;;;2.90;;
72676;SDS011;60755;51.374;10.662;2022-09-09T05:10:26;5.70;;;2.60;;
72676;SDS011;60755;51.374;10.662;2022-09-09T05:12:53;2.60;;;2.40;;
72676;SDS011;60755;51.374;10.662;2022-09-09T05:15:20;3.53;;;2.50;;
72676;SDS011;60755;51.374;10.662;2022-09-09T05:17:46;2.93;;;2.50;;
72676;SDS011;60755;51.374;10.662;2022-09-09T05:20:14;3.47;;;2.33;;
72676;SDS011;60755;51.374;10.662;2022-09-09T05:22:41;4.80;;;2.80;;
72676;SDS011;60755;51.374;10.662;2022-09-09T05:25:08;2.93;;;2.50;;
72676;SDS011;60755;51.374;10.662;2022-09-09T05:27:34;5.33;;;3.10;;
72676;SDS011;60755;51.374;10.662;2022-09-09T05:30:00;4.03;;;2.83;;
72676;SDS011;60755;51.374;10.662;2022-09-09T05:32:29;4.47;;;2.63;;
72676;SDS011;60755;51.374;10.662;2022-09-09T05:34:59;4.03;;;2.63;;
72676;SDS011;60755;51.374;10.662;2022-09-09T05:37:27;2.57;;;2.30;;
72676;SDS011;60755;51.374;10.662;2022-09-09T05:39:55;3.10;;;2.37;;
72676;SDS011;60755;51.374;10.662;2022-09-09T05:42:22;2.83;;;2.20;;
72676;SDS011;60755;51.374;10.662;2022-09-09T05:44:49;4.13;;;2.30;;
72676;SDS011;60755;51.374;10.662;2022-09-09T05:47:19;2.90;;;2.20;;
72676;SDS011;60755;51.374;10.662;2022-09-09T05:49:45;3.47;;;2.63;;
72676;SDS011;60755;51.374;10.662;2022-09-09T05:52:12;2.33;;;2.22;;
72676;SDS011;60755;51.374;10.662;2022-09-09T05:54:40;6.07;;;4.88;;
72676;SDS011;60755;51.374;10.662;2022-09-09T05:57:08;2.90;;;2.70;;
72676;SDS011;60755;51.374;10.662;2022-09-09T05:59:34;2.10;;;2.00;;
72676;SDS011;60755;51.374;10.662;2022-09-09T06:02:01;3.15;;;2.20;;
72676;SDS011;60755;51.374;10.662;2022-09-09T06:04:27;3.05;;;1.65;;
72676;SDS011;60755;51.374;10.662;2022-09-09T06:06:55;5.40;;;1.70;;
72676;SDS011;60755;51.374;10.662;2022-09-09T06:09:21;3.65;;;2.20;;
72676;SDS011;60755;51.374;10.662;2022-09-09T06:11:49;6.75;;;2.20;;
72676;SDS011;60755;51.374;10.662;2022-09-09T06:14:15;2.28;;;1.90;;
72676;SDS011;60755;51.374;10.662;2022-09-09T06:16:43;2.22;;;1.88;;
72676;SDS011;60755;51.374;10.662;2022-09-09T06:19:09;4.05;;;1.80;;
72676;SDS011;60755;51.374;10.662;2022-09-09T06:21:37;2.85;;;1.98;;
72676;SDS011;60755;51.374;10.662;2022-09-09T06:24:03;2.30;;;2.00;;
72676;SDS011;60755;51.374;10.662;2022-09-09T06:26:32;2.88;;;1.80;;
72676;SDS011;60755;51.374;10.662;2022-09-09T06:29:02;3.10;;;2.05;;
72676;SDS011;60755;51.374;10.662;2022-09-09T06:31:30;2.55;;;2.05;;
72676;SDS011;60755;51.374;10.662;2022-09-09T06:33:59;4.68;;;2.03;;
72676;SDS011;60755;51.374;10.662;2022-09-09T06:36:27;1.70;;;1.60;;
72676;SDS011;60755;51.374;10.662;2022-09-09T06:38:54;3.13;;;2.72;;
72676;SDS011;60755;51.374;10.662;2022-09-09T06:41:22;2.10;;;1.90;;
72676;SDS011;60755;51.374;10.662;2022-09-09T06:43:51;2.47;;;1.50;;
72676;SDS011;60755;51.374;10.662;2022-09-09T06:46:19;2.22;;;1.50;;
72676;SDS011;60755;51.374;10.662;2022-09-09T06:48:47;3.33;;;1.73;;
72676;SDS011;60755;51.374;10.662;2022-09-09T06:51:15;2.00;;;1.50;;
72676;SDS011;60755;51.374;10.662;2022-09-09T06:53:43;2.72;;;1.52;;
72676;SDS011;60755;51.374;10.662;2022-09-09T06:56:17;3.80;;;1.70;;
72676;SDS011;60755;51.374;10.662;2022-09-09T06:58:46;1.75;;;1.60;;
72676;SDS011;60755;51.374;10.662;2022-09-09T07:01:14;1.40;;;1.30;;
72676;SDS011;60755;51.374;10.662;2022-09-09T07:03:46;2.30;;;1.98;;
72676;SDS011;60755;51.374;10.662;2022-09-09T07:06:15;1.77;;;1.40;;
72676;SDS011;60755;51.374;10.662;2022-09-09T07:08:44;1.90;;;1.40;;
72676;SDS011;60755;51.374;10.662;2022-09-09T07:11:15;3.05;;;1.40;;
72676;SDS011;60755;51.374;10.662;2022-09-09T07:13:42;1.42;;;1.33;;
72676;SDS011;60755;51.374;10.662;2022-09-09T07:16:09;1.45;;;1.30;;
72676;SDS011;60755;51.374;10.662;2022-09-09T07:18:36;1.67;;;1.35;;
72676;SDS011;60755;51.374;10.662;2022-09-09T07:21:04;2.05;;;1.55;;
72676;SDS011;60755;51.374;10.662;2022-09-09T07:23:33;1.83;;;1.30;;
72676;SDS011;60755;51.374;10.662;2022-09-09T07:26:00;2.67;;;1.48;;
72676;SDS011;60755;51.374;10.662;2022-09-09T07:28:28;3.13;;;1.73;;
72676;SDS011;60755;51.374;10.662;2022-09-09T07:30:56;2.35;;;1.52;;
72676;SDS011;60755;51.374;10.662;2022-09-09T07:33:23;2.97;;;1.65;;
72676;SDS011;60755;51.374;10.662;2022-09-09T07:35:51;2.15;;;1.52;;
72676;SDS011;60755;51.374;10.662;2022-09-09T07:38:20;3.20;;;1.70;;
72676;SDS011;60755;51.374;10.662;2022-09-09T07:40:47;2.83;;;1.52;;
72676;SDS011;60755;51.374;10.662;2022-09-09T07:43:14;2.03;;;1.92;;
72676;SDS011;60755;51.374;10.662;2022-09-09T07:45:44;3.85;;;1.65;;
72676;SDS011;60755;51.374;10.662;2022-09-09T07:48:10;1.63;;;1.45;;
72676;SDS011;60755;51.374;10.662;2022-09-09T07:50:37;2.33;;;1.60;;
72676;SDS011;60755;51.374;10.662;2022-09-09T07:53:03;4.20;;;1.63;;
72676;SDS011;60755;51.374;10.662;2022-09-09T07:55:32;5.00;;;1.85;;
72676;SDS011;60755;51.374;10.662;2022-09-09T07:57:59;2.80;;;1.70;;
72676;SDS011;60755;51.374;10.662;2022-09-09T08:00:26;3.38;;;1.67;;
72676;SDS011;60755;51.374;10.662;2022-09-09T08:02:52;1.65;;;1.55;;
72676;SDS011;60755;51.374;10.662;2022-09-09T08:05:19;5.50;;;1.80;;
72676;SDS011;60755;51.374;10.662;2022-09-09T08:07:47;2.90;;;1.80;;
72676;SDS011;60755;51.374;10.662;2022-09-09T08:10:13;4.53;;;1.92;;
72676;SDS011;60755;51.374;10.662;2022-09-09T08:12:42;1.70;;;1.60;;
72676;SDS011;60755;51.374;10.662;2022-09-09T08:15:08;1.80;;;1.70;;
72676;SDS011;60755;51.374;10.662;2022-09-09T08:17:35;2.67;;;1.63;;
72676;SDS011;60755;51.374;10.662;2022-09-09T08:20:03;2.10;;;1.75;;
72676;SDS011;60755;51.374;10.662;2022-09-09T08:22:31;2.03;;;1.77;;
72676;SDS011;60755;51.374;10.662;2022-09-09T08:24:59;3.63;;;1.52;;
72676;SDS011;60755;51.374;10.662;2022-09-09T08:27:27;3.83;;;1.80;;
72676;SDS011;60755;51.374;10.662;2022-09-09T08:29:54;4.13;;;1.73;;
72676;SDS011;60755;51.374;10.662;2022-09-09T08:32:22;1.60;;;1.50;;
72676;SDS011;60755;51.374;10.662;2022-09-09T08:34:48;4.65;;;1.90;;
72676;SDS011;60755;51.374;10.662;2022-09-09T08:37:16;2.28;;;1.30;;
72676;SDS011;60755;51.374;10.662;2022-09-09T08:39:42;2.25;;;1.40;;
72676;SDS011;60755;51.374;10.662;2022-09-09T08:42:15;3.15;;;1.40;;
72676;SDS011;60755;51.374;10.662;2022-09-09T08:44:54;1.98;;;1.65;;
72676;SDS011;60755;51.374;10.662;2022-09-09T08:47:31;3.80;;;1.60;;
72676;SDS011;60755;51.374;10.662;2022-09-09T08:50:07;1.85;;;1.75;;
72676;SDS011;60755;51.374;10.662;2022-09-09T08:52:44;1.95;;;1.50;;
72676;SDS011;60755;51.374;10.662;2022-09-09T08:55:20;1.60;;;1.50;;
72676;SDS011;60755;51.374;10.662;2022-09-09T08:57:53;1.90;;;1.80;;
72676;SDS011;60755;51.374;10.662;2022-09-09T09:00:23;2.17;;;1.90;;
72676;SDS011;60755;51.374;10.662;2022-09-09T09:02:59;1.67;;;1.58;;
72676;SDS011;60755;51.374;10.662;2022-09-09T09:05:36;3.05;;;1.63;;
72676;SDS011;60755;51.374;10.662;2022-09-09T09:08:12;1.77;;;1.67;;
72676;SDS011;60755;51.374;10.662;2022-09-09T09:10:47;2.53;;;1.70;;
72676;SDS011;60755;51.374;10.662;2022-09-09T09:13:16;2.58;;;1.60;;
72676;SDS011;60755;51.374;10.662;2022-09-09T09:15:48;1.88;;;1.40;;
72676;SDS011;60755;51.374;10.662;2022-09-09T09:18:20;5.47;;;1.60;;
72676;SDS011;60755;51.374;10.662;2022-09-09T09:20:50;3.72;;;1.80;;
72676;SDS011;60755;51.374;10.662;2022-09-09T09:23:25;3.50;;;1.90;;
72676;SDS011;60755;51.374;10.662;2022-09-09T09:25:55;3.10;;;1.95;;
72676;SDS011;60755;51.374;10.662;2022-09-09T09:28:26;3.17;;;1.83;;
72676;SDS011;60755;51.374;10.662;2022-09-09T09:30:57;2.63;;;1.60;;
72676;SDS011;60755;51.374;10.662;2022-09-09T09:33:31;3.75;;;1.58;;
72676;SDS011;60755;51.374;10.662;2022-09-09T09:36:01;3.83;;;1.70;;
72676;SDS011;60755;51.374;10.662;2022-09-09T09:38:33;2.30;;;1.30;;
72676;SDS011;60755;51.374;10.662;2022-09-09T09:41:00;2.30;;;1.58;;
72676;SDS011;60755;51.374;10.662;2022-09-09T09:43:27;4.07;;;1.63;;
72676;SDS011;60755;51.374;10.662;2022-09-09T09:45:56;4.80;;;1.70;;
72676;SDS011;60755;51.374;10.662;2022-09-09T09:48:24;2.72;;;1.55;;
72676;SDS011;60755;51.374;10.662;2022-09-09T09:50:51;2.70;;;1.50;;
72676;SDS011;60755;51.374;10.662;2022-09-09T09:53:21;2.25;;;1.30;;
72676;SDS011;60755;51.374;10.662;2022-09-09T09:55:51;3.45;;;1.58;;
72676;SDS011;60755;51.374;10.662;2022-09-09T09:58:20;2.42;;;1.40;;
72676;SDS011;60755;51.374;10.662;2022-09-09T10:00:47;2.60;;;1.70;;
72676;SDS011;60755;51.374;10.662;2022-09-09T10:03:21;4.20;;;1.50;;
72676;SDS011;60755;51.374;10.662;2022-09-09T10:05:50;2.83;;;1.50;;
72676;SDS011;60755;51.374;10.662;2022-09-09T10:08:17;1.92;;;1.40;;
72676;SDS011;60755;51.374;10.662;2022-09-09T10:10:50;1.55;;;1.30;;
72676;SDS011;60755;51.374;10.662;2022-09-09T10:13:25;1.38;;;1.25;;
72676;SDS011;60755;51.374;10.662;2022-09-09T10:16:02;2.40;;;1.25;;
72676;SDS011;60755;51.374;10.662;2022-09-09T10:18:49;3.15;;;1.80;;
72676;SDS011;60755;51.374;10.662;2022-09-09T10:21:28;4.00;;;1.50;;
72676;SDS011;60755;51.374;10.662;2022-09-09T10:24:13;2.40;;;1.50;;
72676;SDS011;60755;51.374;10.662;2022-09-09T10:26:52;2.03;;;1.52;;
72676;SDS011;60755;51.374;10.662;2022-09-09T10:29:28;2.05;;;1.50;;
72676;SDS011;60755;51.374;10.662;2022-09-09T10:32:23;2.22;;;1.60;;
72676;SDS011;60755;51.374;10.662;2022-09-09T10:35:04;1.17;;;1.15;;
72676;SDS011;60755;51.374;10.662;2022-09-09T10:37:41;2.05;;;1.45;;
72676;SDS011;60755;51.374;10.662;2022-09-09T10:40:22;2.13;;;1.60;;
72676;SDS011;60755;51.374;10.662;2022-09-09T10:42:56;6.50;;;1.52;;
72676;SDS011;60755;51.374;10.662;2022-09-09T10:45:31;1.88;;;1.30;;
72676;SDS011;60755;51.374;10.662;2022-09-09T10:48:12;1.27;;;1.23;;
72676;SDS011;60755;51.374;10.662;2022-09-09T10:50:55;2.97;;;1.40;;
72676;SDS011;60755;51.374;10.662;2022-09-09T10:53:35;1.65;;;1.25;;
72676;SDS011;60755;51.374;10.662;2022-09-09T10:56:10;1.92;;;1.48;;
72676;SDS011;60755;51.374;10.662;2022-09-09T10:58:40;1.98;;;1.50;;
72676;SDS011;60755;51.374;10.662;2022-09-09T11:01:15;1.75;;;1.40;;
72676;SDS011;60755;51.374;10.662;2022-09-09T11:03:44;1.60;;;1.50;;
72676;SDS011;60755;51.374;10.662;2022-09-09T11:06:20;1.70;;;1.60;;
72676;SDS011;60755;51.374;10.662;2022-09-09T11:08:53;1.50;;;1.40;;
72676;SDS011;60755;51.374;10.662;2022-09-09T11:11:20;2.80;;;1.55;;
72676;SDS011;60755;51.374;10.662;2022-09-09T11:13:54;3.10;;;1.33;;
72676;SDS011;60755;51.374;10.662;2022-09-09T11:16:25;2.60;;;1.35;;
72676;SDS011;60755;51.374;10.662;2022-09-09T11:18:58;1.30;;;1.20;;
72676;SDS011;60755;51.374;10.662;2022-09-09T11:21:31;1.73;;;1.40;;
72676;SDS011;60755;51.374;10.662;2022-09-09T11:24:02;2.67;;;1.60;;
72676;SDS011;60755;51.374;10.662;2022-09-09T11:26:32;4.00;;;1.30;;
72676;SDS011;60755;51.374;10.662;2022-09-09T11:29:09;2.55;;;1.80;;
72676;SDS011;60755;51.374;10.662;2022-09-09T11:31:53;1.48;;;1.40;;
72676;SDS011;60755;51.374;10.662;2022-09-09T11:34:35;3.20;;;1.20;;
72676;SDS011;60755;51.374;10.662;2022-09-09T11:37:10;2.53;;;1.00;;
72676;SDS011;60755;51.374;10.662;2022-09-09T11:39:56;6.07;;;1.33;;
72676;SDS011;60755;51.374;10.662;2022-09-09T11:42:34;3.17;;;1.13;;
72676;SDS011;60755;51.374;10.662;2022-09-09T11:45:08;1.10;;;1.00;;
72676;SDS011;60755;51.374;10.662;2022-09-09T11:47:37;2.28;;;1.17;;
72676;SDS011;60755;51.374;10.662;2022-09-09T11:50:08;1.20;;;1.10;;
72676;SDS011;60755;51.374;10.662;2022-09-09T11:52:38;1.60;;;1.00;;
72676;SDS011;60755;51.374;10.662;2022-09-09T11:55:08;3.38;;;1.20;;
72676;SDS011;60755;51.374;10.662;2022-09-09T11:57:38;1.27;;;1.15;;
72676;SDS011;60755;51.374;10.662;2022-09-09T12:00:06;1.10;;;1.10;;
72676;SDS011;60755;51.374;10.662;2022-09-09T12:02:53;1.50;;;1.25;;
72676;SDS011;60755;51.374;10.662;2022-09-09T12:05:20;1.50;;;1.40;;
72676;SDS011;60755;51.374;10.662;2022-09-09T12:07:49;1.50;;;1.40;;
72676;SDS011;60755;51.374;10.662;2022-09-09T12:10:20;1.98;;;1.40;;
72676;SDS011;60755;51.374;10.662;2022-09-09T12:12:51;1.30;;;1.20;;
72676;SDS011;60755;51.374;10.662;2022-09-09T12:15:20;1.35;;;1.25;;
72676;SDS011;60755;51.374;10.662;2022-09-09T12:17:51;6.05;;;1.50;;
72676;SDS011;60755;51.374;10.662;2022-09-09T12:20:20;2.00;;;1.27;;
72676;SDS011;60755;51.374;10.662;2022-09-09T12:23:02;3.83;;;1.60;;
72676;SDS011;60755;51.374;10.662;2022-09-09T12:25:45;2.05;;;1.00;;
72676;SDS011;60755;51.374;10.662;2022-09-09T12:28:18;4.30;;;1.40;;
72676;SDS011;60755;51.374;10.662;2022-09-09T12:30:49;2.70;;;1.23;;
72676;SDS011;60755;51.374;10.662;2022-09-09T12:33:22;2.20;;;1.40;;
72676;SDS011;60755;51.374;10.662;2022-09-09T12:35:51;1.42;;;1.25;;
72676;SDS011;60755;51.374;10.662;2022-09-09T12:38:26;1.85;;;1.20;;
72676;SDS011;60755;51.374;10.662;2022-09-09T12:40:58;2.28;;;1.15;;
72676;SDS011;60755;51.374;10.662;2022-09-09T12:43:26;1.33;;;1.23;;
72676;SDS011;60755;51.374;10.662;2022-09-09T12:45:54;2.65;;;1.27;;
72676;SDS011;60755;51.374;10.662;2022-09-09T12:48:27;2.17;;;0.98;;
72676;SDS011;60755;51.374;10.662;2022-09-09T12:50:57;2.85;;;1.20;;
72676;SDS011;60755;51.374;10.662;2022-09-09T12:53:27;2.80;;;1.10;;
72676;SDS011;60755;51.374;10.662;2022-09-09T12:55:56;2.22;;;1.17;;
72676;SDS011;60755;51.374;10.662;2022-09-09T12:58:24;2.42;;;1.42;;
72676;SDS011;60755;51.374;10.662;2022-09-09T13:00:54;1.90;;;1.27;;
72676;SDS011;60755;51.374;10.662;2022-09-09T13:03:22;1.40;;;1.20;;
72676;SDS011;60755;51.374;10.662;2022-09-09T13:05:50;4.32;;;1.42;;
72676;SDS011;60755;51.374;10.662;2022-09-09T13:08:17;2.95;;;1.50;;
72676;SDS011;60755;51.374;10.662;2022-09-09T13:10:48;3.47;;;1.35;;
72676;SDS011;60755;51.374;10.662;2022-09-09T13:13:19;1.48;;;1.23;;
72676;SDS011;60755;51.374;10.662;2022-09-09T13:15:49;2.83;;;1.67;;
72676;SDS011;60755;51.374;10.662;2022-09-09T13:18:19;2.42;;;1.50;;
72676;SDS011;60755;51.374;10.662;2022-09-09T13:20:48;2.78;;;1.23;;
72676;SDS011;60755;51.374;10.662;2022-09-09T13:23:16;1.83;;;1.30;;
72676;SDS011;60755;51.374;10.662;2022-09-09T13:25:53;1.10;;;1.00;;
72676;SDS011;60755;51.374;10.662;2022-09-09T13:28:22;3.90;;;1.30;;
72676;SDS011;60755;51.374;10.662;2022-09-09T13:30:56;1.55;;;1.02;;
72676;SDS011;60755;51.374;10.662;2022-09-09T13:33:30;1.00;;;1.00;;
72676;SDS011;60755;51.374;10.662;2022-09-09T13:35:59;3.08;;;0.98;;
72676;SDS011;60755;51.374;10.662;2022-09-09T13:38:29;3.08;;;1.00;;
72676;SDS011;60755;51.374;10.662;2022-09-09T13:40:59;1.23;;;1.17;;
72676;SDS011;60755;51.374;10.662;2022-09-09T13:43:29;1.00;;;1.00;;
72676;SDS011;60755;51.374;10.662;2022-09-09T13:46:00;2.53;;;1.50;;
72676;SDS011;60755;51.374;10.662;2022-09-09T13:48:28;1.05;;;0.93;;
72676;SDS011;60755;51.374;10.662;2022-09-09T13:50:56;1.40;;;1.30;;
72676;SDS011;60755;51.374;10.662;2022-09-09T13:53:24;3.67;;;1.13;;
72676;SDS011;60755;51.374;10.662;2022-09-09T13:55:51;1.20;;;1.10;;
72676;SDS011;60755;51.374;10.662;2022-09-09T13:58:19;3.97;;;1.20;;
72676;SDS011;60755;51.374;10.662;2022-09-09T14:00:47;3.78;;;1.10;;
72676;SDS011;60755;51.374;10.662;2022-09-09T14:03:14;1.58;;;1.00;;
72676;SDS011;60755;51.374;10.662;2022-09-09T14:05:41;8.60;;;1.58;;
72676;SDS011;60755;51.374;10.662;2022-09-09T14:08:10;1.75;;;1.40;;
72676;SDS011;60755;51.374;10.662;2022-09-09T14:10:47;1.90;;;1.20;;
72676;SDS011;60755;51.374;10.662;2022-09-09T14:13:14;1.95;;;1.30;;
72676;SDS011;60755;51.374;10.662;2022-09-09T14:15:41;1.25;;;1.15;;
72676;SDS011;60755;51.374;10.662;2022-09-09T14:18:09;4.10;;;1.20;;
72676;SDS011;60755;51.374;10.662;2022-09-09T14:20:38;1.95;;;1.35;;
72676;SDS011;60755;51.374;10.662;2022-09-09T14:23:04;1.20;;;1.20;;
72676;SDS011;60755;51.374;10.662;2022-09-09T14:25:31;1.33;;;1.10;;
72676;SDS011;60755;51.374;10.662;2022-09-09T14:27:58;3.60;;;1.75;;
72676;SDS011;60755;51.374;10.662;2022-09-09T14:30:24;1.75;;;1.17;;
72676;SDS011;60755;51.374;10.662;2022-09-09T14:32:52;2.67;;;1.50;;
72676;SDS011;60755;51.374;10.662;2022-09-09T14:35:18;1.13;;;1.02;;
72676;SDS011;60755;51.374;10.662;2022-09-09T14:37:45;2.67;;;1.40;;
72676;SDS011;60755;51.374;10.662;2022-09-09T14:40:11;2.17;;;1.38;;
72676;SDS011;60755;51.374;10.662;2022-09-09T14:42:39;2.95;;;1.20;;
72676;SDS011;60755;51.374;10.662;2022-09-09T14:45:06;1.75;;;1.20;;
72676;SDS011;60755;51.374;10.662;2022-09-09T14:47:33;2.80;;;1.50;;
72676;SDS011;60755;51.374;10.662;2022-09-09T14:50:01;1.73;;;1.10;;
72676;SDS011;60755;51.374;10.662;2022-09-09T14:52:30;1.48;;;1.23;;